Time;durP1;ratioP1;P1;durP2;ratioP2;P2;SDS_P1;SDS_P2;PMS_P1;PMS_P2;Temp;Humidity;BMP_temperature;BMP_pressure;BME280_temperature;BME280_humidity;BME280_pressure;Samples;Min_cycle;Max_cycle;Signal;HPM_P1;HPM_P2
2024/01/15 00:02:07;;;;;;;;;;;;;;;-4.02;76.43;99526.13;4985533;28;19933;-82
2024/01/15 00:04:40;;;;;;;;;;;;;;;-4.04;76.40;99532.03;4988402;28;19933;-83
2024/01/15 00:07:07;;;;;;;;;;;;;;;-4.07;76.50;99537.06;4971106;28;19983;-82
2024/01/15 00:09:34;;;;;;;;;;;;;;;-4.07;76.52;99527.72;4977000;28;19937;-83
2024/01/15 00:12:00;;;;;;;;;;;;;;;-4.02;76.50;99531.25;4988230;28;19984;-82
2024/01/15 00:14:30;;;;;;;;;;;;;;;-4.00;76.44;99518.50;4986829;28;19934;-82
2024/01/15 00:16:56;;;;;;;;;;;;;;;-3.94;76.33;99518.69;4987327;28;19933;-83
2024/01/15 00:19:23;;;;;;;;;;;;;;;-3.93;76.10;99520.41;4991285;28;19933;-83
2024/01/15 00:21:50;;;;;;;;;;;;;;;-3.94;76.08;99511.00;4985238;28;20376;-81
2024/01/15 00:24:17;;;;;;;;;;;;;;;-3.93;76.13;99499.03;4969613;28;19958;-83
2024/01/15 00:26:44;;;;;;;;;;;;;;;-3.91;75.92;99505.97;4969646;28;20020;-82
2024/01/15 00:29:10;;;;;;;;;;;;;;;-3.92;75.96;99499.09;4990533;28;19926;-81
2024/01/15 00:31:37;;;;;;;;;;;;;;;-3.90;76.02;99484.59;4985266;28;19925;-82
2024/01/15 00:34:04;;;;;;;;;;;;;;;-3.92;76.00;99496.53;4984431;28;20005;-78
2024/01/15 00:36:31;;;;;;;;;;;;;;;-3.90;75.80;99482.03;4993233;28;19972;-82
2024/01/15 00:38:57;;;;;;;;;;;;;;;-3.89;75.88;99480.34;4989899;28;19933;-82
2024/01/15 00:41:24;;;;;;;;;;;;;;;-3.86;75.45;99475.31;4980123;28;19926;-81
2024/01/15 00:43:51;;;;;;;;;;;;;;;-3.84;75.76;99476.22;4966823;28;19926;-83
2024/01/15 00:46:17;;;;;;;;;;;;;;;-3.85;75.73;99467.66;4981473;28;20033;-81
2024/01/15 00:48:44;;;;;;;;;;;;;;;-3.82;75.65;99472.00;4989933;28;20389;-83
2024/01/15 00:51:11;;;;;;;;;;;;;;;-3.78;75.53;99478.06;4983637;28;19926;-82
2024/01/15 00:53:37;;;;;;;;;;;;;;;-3.75;75.59;99468.78;4970890;28;19934;-82
2024/01/15 00:56:04;;;;;;;;;;;;;;;-3.78;75.27;99476.41;4990387;28;20293;-82
2024/01/15 00:58:30;;;;;;;;;;;;;;;-3.76;75.51;99486.69;4966918;28;19926;-82
2024/01/15 01:00:57;;;;;;;;;;;;;;;-3.76;75.53;99489.25;4982432;28;19926;-82
2024/01/15 01:03:24;;;;;;;;;;;;;;;-3.71;75.30;99482.53;4987968;28;19933;-83
2024/01/15 01:05:50;;;;;;;;;;;;;;;-3.66;75.34;99493.81;4986405;28;19979;-82
2024/01/15 01:08:17;;;;;;;;;;;;;;;-3.68;75.29;99500.56;4983137;28;19933;-83
2024/01/15 01:10:44;;;;;;;;;;;;;;;-3.60;75.35;99493.97;4972371;28;19941;-82
2024/01/15 01:13:10;;;;;;;;;;;;;;;-3.60;75.34;99487.97;4990698;28;19929;-81
2024/01/15 01:15:38;;;;;;;;;;;;;;;-3.59;74.97;99484.56;4990718;28;19937;-81
2024/01/15 01:18:05;;;;;;;;;;;;;;;-3.61;74.94;99466.56;4973164;28;19930;-82
2024/01/15 01:20:32;;;;;;;;;;;;;;;-3.62;74.85;99480.25;4988534;28;19940;-82
2024/01/15 01:22:59;;;;;;;;;;;;;;;-3.56;75.05;99480.41;4969941;28;19936;-83
2024/01/15 01:25:26;;;;;;;;;;;;;;;-3.58;75.27;99473.47;4986708;28;19933;-83
2024/01/15 01:27:53;;;;;;;;;;;;;;;-3.52;74.95;99487.34;4989928;28;19926;-82
2024/01/15 01:30:19;;;;;;;;;;;;;;;-3.52;74.97;99471.97;4988841;28;19941;-83
2024/01/15 01:32:46;;;;;;;;;;;;;;;-3.51;75.07;99476.25;4986765;28;19949;-82
2024/01/15 01:35:13;;;;;;;;;;;;;;;-3.49;75.11;99496.81;4984940;28;19926;-82
2024/01/15 01:37:40;;;;;;;;;;;;;;;-3.50;75.35;99480.56;4987436;28;19932;-83
2024/01/15 01:40:06;;;;;;;;;;;;;;;-3.47;75.73;99481.47;4981838;28;20367;-82
2024/01/15 01:42:33;;;;;;;;;;;;;;;-3.48;75.68;99479.72;4989124;28;19945;-82
2024/01/15 01:45:00;;;;;;;;;;;;;;;-3.48;75.52;99479.72;4981337;28;19930;-83
2024/01/15 01:47:26;;;;;;;;;;;;;;;-3.46;75.39;99467.81;4979609;28;19932;-82
2024/01/15 01:49:53;;;;;;;;;;;;;;;-3.44;75.65;99468.72;4970296;28;19981;-83
2024/01/15 01:52:20;;;;;;;;;;;;;;;-3.43;75.67;99465.31;4970616;28;19937;-83
2024/01/15 01:54:47;;;;;;;;;;;;;;;-3.48;75.98;99472.03;4988184;28;19983;-82
2024/01/15 01:57:13;;;;;;;;;;;;;;;-3.43;75.81;99465.31;4965213;28;20020;-83
2024/01/15 01:59:40;;;;;;;;;;;;;;;-3.42;76.28;99451.66;4965850;28;19973;-82
2024/01/15 02:02:06;;;;;;;;;;;;;;;-3.41;76.26;99454.25;4968763;28;19980;-82
2024/01/15 02:04:33;;;;;;;;;;;;;;;-3.40;76.35;99450.03;4970503;28;19934;-83
2024/01/15 02:07:00;;;;;;;;;;;;;;;-3.39;75.56;99449.16;4970282;28;19925;-82
2024/01/15 02:09:27;;;;;;;;;;;;;;;-3.38;76.03;99440.66;4965900;28;19926;-82
2024/01/15 02:11:53;;;;;;;;;;;;;;;-3.38;76.01;99443.22;4981799;28;19961;-83
2024/01/15 02:14:20;;;;;;;;;;;;;;;-3.33;75.64;99444.22;4953570;28;19926;-83
2024/01/15 02:16:47;;;;;;;;;;;;;;;-3.33;75.55;99433.94;4961365;28;19926;-79
2024/01/15 02:19:17;;;;;;;;;;;;;;;-3.31;75.99;99424.56;4971157;28;19926;-82
2024/01/15 02:21:44;;;;;;;;;;;;;;;-3.36;75.81;99416.78;4983750;28;19925;-83
2024/01/15 02:24:11;;;;;;;;;;;;;;;-3.35;75.76;99408.22;4978756;28;20293;-82
2024/01/15 02:26:38;;;;;;;;;;;;;;;-3.36;75.80;99405.63;4971395;28;19962;-82
2024/01/15 02:29:05;;;;;;;;;;;;;;;-3.35;75.82;99402.22;4966437;28;19981;-82
2024/01/15 02:31:31;;;;;;;;;;;;;;;-3.36;76.07;99401.38;4954175;28;20006;-82
2024/01/15 02:33:58;;;;;;;;;;;;;;;-3.31;75.98;99409.19;4989608;28;19925;-83
2024/01/15 02:36:25;;;;;;;;;;;;;;;-3.32;76.18;99397.19;4984593;28;19926;-83
2024/01/15 02:38:51;;;;;;;;;;;;;;;-3.33;76.01;99409.16;4987012;28;20052;-82
2024/01/15 02:41:18;;;;;;;;;;;;;;;-3.35;76.27;99413.34;4989532;28;19976;-83
2024/01/15 02:43:45;;;;;;;;;;;;;;;-3.32;75.97;99407.44;4984557;28;19936;-82
2024/01/15 02:46:11;;;;;;;;;;;;;;;-3.32;76.34;99398.06;4990055;28;19945;-81
2024/01/15 02:48:38;;;;;;;;;;;;;;;-3.33;76.40;99400.59;4991164;28;19925;-83
2024/01/15 02:51:05;;;;;;;;;;;;;;;-3.32;76.46;99389.47;4989914;28;19926;-82
2024/01/15 02:53:31;;;;;;;;;;;;;;;-3.30;76.50;99399.78;4980374;28;19965;-82
2024/01/15 02:55:58;;;;;;;;;;;;;;;-3.34;76.62;99350.09;4987261;28;19930;-83
2024/01/15 02:58:24;;;;;;;;;;;;;;;-3.35;76.74;99345.78;4989889;28;19926;-82
2024/01/15 03:00:51;;;;;;;;;;;;;;;-3.36;76.88;99324.41;4990995;28;19926;-82
2024/01/15 03:03:18;;;;;;;;;;;;;;;-3.35;77.05;99320.13;4991508;28;19932;-83
2024/01/15 03:05:44;;;;;;;;;;;;;;;-3.39;76.76;99319.22;4991342;28;20054;-81
2024/01/15 03:08:11;;;;;;;;;;;;;;;-3.34;76.83;99327.00;4990737;28;19933;-82
2024/01/15 03:10:38;;;;;;;;;;;;;;;-3.34;76.82;99322.72;4989758;28;19933;-82
2024/01/15 03:13:04;;;;;;;;;;;;;;;-3.31;76.90;99329.63;4988574;28;20389;-82
2024/01/15 03:15:31;;;;;;;;;;;;;;;-3.28;76.87;99327.13;4989428;28;20033;-82
2024/01/15 03:17:58;;;;;;;;;;;;;;;-3.28;76.89;99334.84;4990451;28;19925;-82
2024/01/15 03:20:24;;;;;;;;;;;;;;;-3.25;76.90;99346.88;4982919;28;20017;-83
2024/01/15 03:22:51;;;;;;;;;;;;;;;-3.24;76.85;99354.59;4986604;28;19937;-83
2024/01/15 03:25:17;;;;;;;;;;;;;;;-3.25;77.08;99352.88;4967374;28;19926;-81
2024/01/15 03:27:44;;;;;;;;;;;;;;;-3.23;77.23;99356.34;4953957;28;19980;-83
2024/01/15 03:30:11;;;;;;;;;;;;;;;-3.13;76.84;99374.53;4987335;28;19933;-82
2024/01/15 03:32:38;;;;;;;;;;;;;;;-3.07;76.45;99400.31;4990989;28;19926;-83
2024/01/15 03:35:05;;;;;;;;;;;;;;;-3.10;76.89;99413.09;4983144;28;20020;-83
2024/01/15 03:37:32;;;;;;;;;;;;;;;-3.13;77.21;99411.31;4990192;28;19926;-84
2024/01/15 03:39:58;;;;;;;;;;;;;;;-3.13;77.27;99423.28;4986139;28;19926;-80
2024/01/15 03:42:25;;;;;;;;;;;;;;;-3.14;77.60;99417.28;4968356;28;20309;-80
2024/01/15 03:44:52;;;;;;;;;;;;;;;-3.11;77.55;99395.94;4989539;28;19929;-81
2024/01/15 03:47:18;;;;;;;;;;;;;;;-3.07;77.24;99392.63;4990048;28;19926;-81
2024/01/15 03:49:45;;;;;;;;;;;;;;;-2.95;76.99;99398.03;4990561;28;19930;-82
2024/01/15 03:52:12;;;;;;;;;;;;;;;-2.91;76.61;99393.84;4973410;28;19925;-81
2024/01/15 03:54:38;;;;;;;;;;;;;;;-2.86;76.46;99387.97;4966832;28;19926;-82
2024/01/15 03:57:05;;;;;;;;;;;;;;;-2.84;76.00;99383.75;4948439;28;19930;-81
2024/01/15 03:59:32;;;;;;;;;;;;;;;-2.85;76.17;99392.28;4985726;28;19946;-80
2024/01/15 04:01:58;;;;;;;;;;;;;;;-2.90;76.37;99393.88;4989248;28;19926;-82
2024/01/15 04:04:25;;;;;;;;;;;;;;;-2.82;75.96;99391.50;4984042;28;19926;-82
2024/01/15 04:06:52;;;;;;;;;;;;;;;-2.85;76.28;99382.00;4983090;28;19930;-81
2024/01/15 04:09:19;;;;;;;;;;;;;;;-2.88;76.31;99389.66;4983117;28;19930;-82
2024/01/15 04:11:48;;;;;;;;;;;;;;;-2.87;76.40;99396.53;4971607;28;19926;-81
2024/01/15 04:14:15;;;;;;;;;;;;;;;-2.88;76.26;99387.09;4979329;28;19926;-83
2024/01/15 04:16:41;;;;;;;;;;;;;;;-2.90;76.63;99385.31;4985661;28;19989;-82
2024/01/15 04:19:08;;;;;;;;;;;;;;;-2.97;76.68;99382.59;4970425;28;19926;-81
2024/01/15 04:21:35;;;;;;;;;;;;;;;-2.99;76.99;99375.69;4984827;28;19929;-82
2024/01/15 04:24:02;;;;;;;;;;;;;;;-3.00;76.98;99376.53;4981824;28;19933;-82
2024/01/15 04:26:28;;;;;;;;;;;;;;;-2.76;76.30;99388.19;4990102;28;19934;-83
2024/01/15 04:28:55;;;;;;;;;;;;;;;-2.80;76.10;99390.66;4977677;28;19926;-81
2024/01/15 04:31:25;;;;;;;;;;;;;;;-2.88;76.30;99374.25;4989784;28;19925;-81
2024/01/15 04:33:52;;;;;;;;;;;;;;;-2.88;76.50;99375.91;4982520;28;19926;-82
2024/01/15 04:36:19;;;;;;;;;;;;;;;-2.73;76.06;99394.25;4982360;28;19933;-83
2024/01/15 04:38:45;;;;;;;;;;;;;;;-2.84;76.28;99372.59;4979429;28;19926;-82
2024/01/15 04:41:12;;;;;;;;;;;;;;;-2.89;76.61;99380.19;4988016;28;19932;-82
2024/01/15 04:43:39;;;;;;;;;;;;;;;-2.59;75.65;99371.44;4987782;28;20002;-83
2024/01/15 04:46:07;;;;;;;;;;;;;;;-2.65;75.78;99371.28;4988319;28;19997;-81
2024/01/15 04:48:33;;;;;;;;;;;;;;;-2.73;76.20;99370.28;4985221;28;19932;-82
2024/01/15 04:51:00;;;;;;;;;;;;;;;-2.63;75.36;99365.34;4983222;28;19930;-81
2024/01/15 04:53:27;;;;;;;;;;;;;;;-2.63;75.64;99372.19;4970949;28;19932;-82
2024/01/15 04:55:53;;;;;;;;;;;;;;;-2.69;75.70;99365.22;4987586;28;19969;-82
2024/01/15 04:58:20;;;;;;;;;;;;;;;-2.69;75.60;99370.38;4963742;28;19926;-81
2024/01/15 05:00:47;;;;;;;;;;;;;;;-2.65;75.09;99371.28;4977098;28;19930;-82
2024/01/15 05:03:13;;;;;;;;;;;;;;;-2.70;75.19;99367.78;4983360;28;19932;-82
2024/01/15 05:05:40;;;;;;;;;;;;;;;-2.71;75.59;99373.72;4985062;28;19940;-80
2024/01/15 05:08:07;;;;;;;;;;;;;;;-2.70;75.54;99357.50;4987105;28;19925;-81
2024/01/15 05:10:34;;;;;;;;;;;;;;;-2.75;76.47;99362.53;4952951;28;20340;-82
2024/01/15 05:13:00;;;;;;;;;;;;;;;-2.77;76.59;99355.63;4964405;28;19926;-81
2024/01/15 05:15:27;;;;;;;;;;;;;;;-2.72;76.39;99361.72;4970068;28;19933;-81
2024/01/15 05:17:53;;;;;;;;;;;;;;;-2.74;76.17;99355.69;4978756;28;19981;-81
2024/01/15 05:20:20;;;;;;;;;;;;;;;-2.78;76.37;99344.50;4985828;28;19933;-82
2024/01/15 05:22:47;;;;;;;;;;;;;;;-2.76;76.81;99337.69;4984562;28;19934;-82
2024/01/15 05:25:14;;;;;;;;;;;;;;;-2.76;76.85;99334.25;4982739;28;19930;-81
2024/01/15 05:27:40;;;;;;;;;;;;;;;-2.75;76.88;99342.00;4965642;28;19926;-84
2024/01/15 05:30:07;;;;;;;;;;;;;;;-2.75;76.50;99353.94;4987483;28;19925;-83
2024/01/15 05:32:34;;;;;;;;;;;;;;;-2.74;76.45;99353.97;4967384;28;19926;-83
2024/01/15 05:35:00;;;;;;;;;;;;;;;-2.76;77.02;99347.94;4985336;28;19964;-83
2024/01/15 05:37:27;;;;;;;;;;;;;;;-2.76;77.33;99349.66;4983039;28;19973;-82
2024/01/15 05:39:54;;;;;;;;;;;;;;;-2.77;77.50;99347.94;4968190;28;20017;-81
2024/01/15 05:42:21;;;;;;;;;;;;;;;-2.78;77.28;99343.63;4982999;28;19934;-81
2024/01/15 05:44:47;;;;;;;;;;;;;;;-2.76;77.67;99331.69;4978867;28;19933;-81
2024/01/15 05:47:14;;;;;;;;;;;;;;;-2.69;77.59;99324.13;4983316;28;19926;-84
2024/01/15 05:49:41;;;;;;;;;;;;;;;-2.64;77.70;99327.69;4987959;28;19937;-85
2024/01/15 05:52:07;;;;;;;;;;;;;;;-2.62;77.36;99325.13;4982396;28;19925;-83
2024/01/15 05:54:34;;;;;;;;;;;;;;;-2.60;77.16;99320.03;4976271;28;19933;-84
2024/01/15 05:57:00;;;;;;;;;;;;;;;-2.58;77.54;99314.06;4977886;28;19952;-82
2024/01/15 05:59:31;;;;;;;;;;;;;;;-2.59;77.87;99304.66;4987617;28;19926;-83
2024/01/15 06:01:58;;;;;;;;;;;;;;;-2.55;77.85;99291.03;4972494;28;19933;-82
2024/01/15 06:04:24;;;;;;;;;;;;;;;-2.50;77.55;99298.81;4987300;28;19926;-83
2024/01/15 06:06:51;;;;;;;;;;;;;;;-2.55;77.77;99291.03;4968928;28;20294;-83
2024/01/15 06:09:19;;;;;;;;;;;;;;;-2.49;77.54;99280.84;4990027;28;19925;-83
2024/01/15 06:11:46;;;;;;;;;;;;;;;-2.46;77.65;99280.91;4985800;28;20297;-84
2024/01/15 06:14:12;;;;;;;;;;;;;;;-2.41;77.67;99272.44;4953300;28;20006;-83
2024/01/15 06:16:39;;;;;;;;;;;;;;;-2.36;77.54;99271.69;4982959;28;19936;-85
2024/01/15 06:19:06;;;;;;;;;;;;;;;-2.32;77.33;99267.44;4983619;28;20290;-83
2024/01/15 06:21:33;;;;;;;;;;;;;;;-2.30;77.37;99270.94;4988651;28;19933;-82
2024/01/15 06:23:59;;;;;;;;;;;;;;;-2.19;77.30;99271.97;4986597;28;19934;-82
2024/01/15 06:26:26;;;;;;;;;;;;;;;-2.14;76.93;99256.63;4985814;28;20024;-82
2024/01/15 06:28:53;;;;;;;;;;;;;;;-2.06;76.78;99275.63;4982645;28;19925;-83
2024/01/15 06:31:19;;;;;;;;;;;;;;;-2.03;76.41;99269.66;4986353;28;19926;-83
2024/01/15 06:33:48;;;;;;;;;;;;;;;-2.08;76.60;99276.44;4987975;28;20313;-84
2024/01/15 06:36:18;;;;;;;;;;;;;;;-2.11;76.83;99284.97;4988982;28;19940;-81
2024/01/15 06:38:45;;;;;;;;;;;;;;;-2.05;76.39;99297.06;4960061;28;19927;-82
2024/01/15 06:41:11;;;;;;;;;;;;;;;-2.04;76.41;99284.22;4982772;28;19930;-81
2024/01/15 06:43:38;;;;;;;;;;;;;;;-2.05;76.34;99287.63;4989413;28;19926;-83
2024/01/15 06:46:04;;;;;;;;;;;;;;;-2.05;76.39;99292.78;4965747;28;19988;-82
2024/01/15 06:48:34;;;;;;;;;;;;;;;-2.05;76.56;99286.78;4969313;28;20296;-81
2024/01/15 06:51:01;;;;;;;;;;;;;;;-2.03;76.44;99280.81;4988559;28;20378;-83
2024/01/15 06:53:27;;;;;;;;;;;;;;;-2.03;76.58;99277.38;4985165;28;19988;-83
2024/01/15 06:55:54;;;;;;;;;;;;;;;-1.95;76.35;99293.81;4991952;28;19926;-83
2024/01/15 06:58:20;;;;;;;;;;;;;;;-1.85;75.93;99279.41;4985865;28;19948;-83
2024/01/15 07:00:47;;;;;;;;;;;;;;;-1.90;76.18;99281.88;4971278;28;19929;-83
2024/01/15 07:03:14;;;;;;;;;;;;;;;-1.91;76.23;99282.75;4953746;28;19929;-83
2024/01/15 07:05:41;;;;;;;;;;;;;;;-1.85;76.03;99294.84;4982851;28;19966;-83
2024/01/15 07:08:08;;;;;;;;;;;;;;;-1.86;76.13;99288.81;4978565;28;19926;-84
2024/01/15 07:10:35;;;;;;;;;;;;;;;-1.81;75.89;99297.47;4982746;28;19934;-84
2024/01/15 07:13:04;;;;;;;;;;;;;;;-1.84;76.07;99307.72;4981957;28;19936;-83
2024/01/15 07:15:31;;;;;;;;;;;;;;;-1.80;76.04;99308.63;4987358;28;19997;-84
2024/01/15 07:17:58;;;;;;;;;;;;;;;-1.69;75.88;99306.25;4988829;28;19932;-84
2024/01/15 07:20:24;;;;;;;;;;;;;;;-1.67;75.65;99314.84;4984592;28;19976;-84
2024/01/15 07:22:51;;;;;;;;;;;;;;;-1.70;75.78;99304.50;4989464;28;19930;-84
2024/01/15 07:25:18;;;;;;;;;;;;;;;-1.70;75.89;99307.06;4968339;28;19948;-85
2024/01/15 07:27:46;;;;;;;;;;;;;;;-1.70;76.01;99310.50;4980759;28;19926;-84
2024/01/15 07:30:13;;;;;;;;;;;;;;;-1.65;75.82;99297.72;4986707;28;19926;-84
2024/01/15 07:32:40;;;;;;;;;;;;;;;-1.64;75.90;99302.03;4967017;28;19934;-82
2024/01/15 07:35:07;;;;;;;;;;;;;;;-1.54;75.57;99298.75;4992344;28;19926;-83
2024/01/15 07:37:34;;;;;;;;;;;;;;;-1.56;75.71;99303.03;4988963;28;20006;-83
2024/01/15 07:40:00;;;;;;;;;;;;;;;-1.57;75.98;99301.28;4983197;28;19926;-83
2024/01/15 07:42:27;;;;;;;;;;;;;;;-1.57;76.07;99285.84;4974517;28;20037;-83
2024/01/15 07:44:54;;;;;;;;;;;;;;;-1.53;75.91;99285.06;4980557;28;19937;-84
2024/01/15 07:47:21;;;;;;;;;;;;;;;-1.57;76.20;99280.69;4976955;28;19968;-83
2024/01/15 07:49:47;;;;;;;;;;;;;;;-1.61;76.43;99284.06;4973489;28;19949;-83
2024/01/15 07:52:14;;;;;;;;;;;;;;;-1.60;76.42;99286.66;4970942;28;19926;-83
2024/01/15 07:54:41;;;;;;;;;;;;;;;-1.60;76.29;99285.78;4966262;28;19945;-84
2024/01/15 07:57:08;;;;;;;;;;;;;;;-1.55;76.26;99291.00;4987879;28;19925;-82
2024/01/15 07:59:35;;;;;;;;;;;;;;;-1.51;76.34;99291.06;4990762;28;19957;-83
2024/01/15 08:02:02;;;;;;;;;;;;;;;-1.52;76.34;99293.63;4989071;28;19930;-83
2024/01/15 08:04:29;;;;;;;;;;;;;;;-1.52;76.48;99289.38;4991128;28;19926;-83
2024/01/15 08:06:56;;;;;;;;;;;;;;;-1.56;76.58;99295.31;4979340;28;19930;-82
2024/01/15 08:09:23;;;;;;;;;;;;;;;-1.56;76.77;99300.44;4968200;28;19932;-82
2024/01/15 08:11:50;;;;;;;;;;;;;;;-1.54;76.72;99290.19;4993240;28;20250;-84
2024/01/15 08:14:17;;;;;;;;;;;;;;;-1.50;76.47;99281.66;4989704;28;19934;-83
2024/01/15 08:16:44;;;;;;;;;;;;;;;-1.47;76.39;99282.56;4991489;28;19926;-82
2024/01/15 08:19:11;;;;;;;;;;;;;;;-1.47;76.28;99282.56;4984263;28;19926;-84
2024/01/15 08:21:38;;;;;;;;;;;;;;;-1.40;76.19;99279.25;4988892;28;19985;-83
2024/01/15 08:24:05;;;;;;;;;;;;;;;-1.41;76.41;99282.66;4985380;28;19981;-83
2024/01/15 08:26:34;;;;;;;;;;;;;;;-1.37;76.43;99278.41;4991980;28;19940;-84
2024/01/15 08:29:01;;;;;;;;;;;;;;;-1.41;76.94;99282.66;4990667;28;19932;-83
2024/01/15 08:31:27;;;;;;;;;;;;;;;-1.39;76.87;99274.97;4981078;28;19926;-83
2024/01/15 08:33:55;;;;;;;;;;;;;;;-1.35;76.93;99286.16;4974096;28;19978;-83
2024/01/15 08:36:22;;;;;;;;;;;;;;;-1.38;77.54;99297.28;4977257;28;19933;-82
2024/01/15 08:38:49;;;;;;;;;;;;;;;-1.35;77.69;99286.16;4972188;28;19927;-84
2024/01/15 08:41:16;;;;;;;;;;;;;;;-1.37;77.79;99299.00;4966757;28;20017;-82
2024/01/15 08:43:42;;;;;;;;;;;;;;;-1.40;77.74;99288.69;4980104;28;19937;-84
2024/01/15 08:46:09;;;;;;;;;;;;;;;-1.42;77.45;99285.19;4981742;28;19930;-83
2024/01/15 08:48:36;;;;;;;;;;;;;;;-1.43;77.53;99281.78;4981113;28;20013;-84
2024/01/15 08:51:03;;;;;;;;;;;;;;;-1.43;77.66;99281.78;4984174;28;19959;-84
2024/01/15 08:53:30;;;;;;;;;;;;;;;-1.41;77.49;99287.78;4985118;28;19965;-83
2024/01/15 08:55:57;;;;;;;;;;;;;;;-1.37;77.70;99280.16;4989334;28;19926;-82
2024/01/15 08:58:24;;;;;;;;;;;;;;;-1.38;77.75;99296.41;4984221;28;19949;-84
2024/01/15 09:00:51;;;;;;;;;;;;;;;-1.35;77.69;99288.75;4984607;28;19996;-83
2024/01/15 09:03:18;;;;;;;;;;;;;;;-1.36;77.75;99290.47;4968689;28;19992;-82
2024/01/15 09:05:44;;;;;;;;;;;;;;;-1.35;77.98;99293.88;4972322;28;19926;-82
2024/01/15 09:08:11;;;;;;;;;;;;;;;-1.33;77.92;99299.91;4987825;28;19929;-82
2024/01/15 09:10:38;;;;;;;;;;;;;;;-1.33;78.01;99297.34;4979163;28;19926;-83
2024/01/15 09:13:05;;;;;;;;;;;;;;;-1.33;78.11;99307.63;4962933;28;20033;-81
2024/01/15 09:15:32;;;;;;;;;;;;;;;-1.36;78.66;99313.63;4981840;28;19926;-82
2024/01/15 09:17:59;;;;;;;;;;;;;;;-1.41;79.14;99317.81;4978642;28;20008;-82
2024/01/15 09:20:27;;;;;;;;;;;;;;;-1.48;79.80;99311.69;4981406;28;20016;-81
2024/01/15 09:22:54;;;;;;;;;;;;;;;-1.53;80.83;99313.34;4987682;28;20144;-83
2024/01/15 09:25:20;;;;;;;;;;;;;;;-1.57;81.93;99311.56;4979638;28;19926;-82
2024/01/15 09:27:48;;;;;;;;;;;;;;;-1.63;82.82;99311.47;4981839;28;19941;-82
2024/01/15 09:30:15;;;;;;;;;;;;;;;-1.75;83.98;99315.59;4976444;28;19933;-83
2024/01/15 09:32:42;;;;;;;;;;;;;;;-1.74;84.60;99313.88;4984857;28;19993;-82
2024/01/15 09:35:09;;;;;;;;;;;;;;;-1.76;85.05;99306.13;4979374;28;19933;-82
2024/01/15 09:37:37;;;;;;;;;;;;;;;-1.80;85.52;99309.47;4980341;28;19926;-83
2024/01/15 09:40:16;;;;;;;;;;;;;;;-1.80;85.83;99299.19;4962599;28;19926;-82
2024/01/15 09:42:43;;;;;;;;;;;;;;;-1.80;86.00;99299.19;4980486;28;19937;-81
2024/01/15 09:45:10;;;;;;;;;;;;;;;-1.78;85.80;99297.53;4957619;28;19984;-82
2024/01/15 09:47:38;;;;;;;;;;;;;;;-1.74;85.70;99298.44;4964433;28;19930;-81
2024/01/15 09:50:10;;;;;;;;;;;;;;;-1.73;85.76;99283.88;4968699;28;19932;-82
2024/01/15 09:52:40;;;;;;;;;;;;;;;-1.75;85.97;99287.28;4979618;28;19926;-82
2024/01/15 09:55:06;;;;;;;;;;;;;;;-1.76;85.78;99282.97;4978165;28;19952;-83
2024/01/15 09:57:33;;;;;;;;;;;;;;;-1.73;86.24;99279.59;4970828;28;20017;-83
2024/01/15 10:00:01;;;;;;;;;;;;;;;-1.77;86.63;99278.69;4963405;28;19977;-82
2024/01/15 10:02:27;;;;;;;;;;;;;;;-1.75;86.53;99277.00;4968234;28;19926;-82
2024/01/15 10:04:55;;;;;;;;;;;;;;;-1.79;86.56;99280.34;4987646;28;19948;-82
2024/01/15 10:07:25;;;;;;;;;;;;;;;-1.75;86.41;99263.28;4982396;28;19965;-83
2024/01/15 10:09:52;;;;;;;;;;;;;;;-1.76;86.02;99264.97;4984286;28;19926;-83
2024/01/15 10:12:19;;;;;;;;;;;;;;;-1.80;86.75;99265.75;4970647;28;19932;-82
2024/01/15 10:14:45;;;;;;;;;;;;;;;-1.83;87.08;99267.44;4969919;28;20385;-81
2024/01/15 10:17:14;;;;;;;;;;;;;;;-1.75;87.32;99264.13;4979700;28;19930;-82
2024/01/15 10:19:41;;;;;;;;;;;;;;;-1.77;86.86;99252.97;4977275;28;19926;-81
2024/01/15 10:22:14;;;;;;;;;;;;;;;-1.77;86.92;99250.41;4984451;28;19926;-81
2024/01/15 10:24:40;;;;;;;;;;;;;;;-1.71;87.08;99246.16;4979117;28;19926;-82
2024/01/15 10:27:08;;;;;;;;;;;;;;;-1.70;87.11;99266.78;4981985;28;20254;-82
2024/01/15 10:29:36;;;;;;;;;;;;;;;-1.69;87.32;99262.50;4979437;28;19976;-83
2024/01/15 10:32:03;;;;;;;;;;;;;;;-1.65;87.23;99275.44;4962673;28;21159;-81
2024/01/15 10:34:30;;;;;;;;;;;;;;;-1.62;87.28;99272.06;4969668;28;19925;-82
2024/01/15 10:36:57;;;;;;;;;;;;;;;-1.68;86.94;99264.22;4962578;28;19932;-81
2024/01/15 10:39:24;;;;;;;;;;;;;;;-1.70;87.12;99266.78;4971676;28;19930;-81
2024/01/15 10:41:51;;;;;;;;;;;;;;;-1.67;87.06;99258.25;4978537;28;19976;-80
2024/01/15 10:44:18;;;;;;;;;;;;;;;-1.63;86.85;99254.88;4958336;28;19925;-81
2024/01/15 10:46:45;;;;;;;;;;;;;;;-1.63;86.70;99250.59;4974717;28;19932;-81
2024/01/15 10:49:12;;;;;;;;;;;;;;;-1.60;86.77;99252.34;4980348;28;19956;-81
2024/01/15 10:51:38;;;;;;;;;;;;;;;-1.57;86.27;99242.09;4970304;28;19926;-82
2024/01/15 10:54:05;;;;;;;;;;;;;;;-1.55;86.13;99249.84;4965216;28;19948;-81
2024/01/15 10:56:34;;;;;;;;;;;;;;;-1.49;86.34;99253.38;4967650;28;19937;-81
2024/01/15 10:59:01;;;;;;;;;;;;;;;-1.46;86.19;99250.84;4961913;28;19932;-81
2024/01/15 11:01:28;;;;;;;;;;;;;;;-1.49;85.54;99253.38;4968188;28;19926;-81
2024/01/15 11:03:57;;;;;;;;;;;;;;;-1.45;85.68;99256.84;4968466;28;19964;-81
2024/01/15 11:06:24;;;;;;;;;;;;;;;-1.40;85.81;99253.50;4968331;28;19940;-81
2024/01/15 11:08:52;;;;;;;;;;;;;;;-1.36;85.04;99248.38;4988661;28;19930;-81
2024/01/15 11:11:18;;;;;;;;;;;;;;;-1.21;83.46;99228.00;4977107;28;19934;-82
2024/01/15 11:13:52;;;;;;;;;;;;;;;-1.22;83.91;99223.69;4987259;28;19926;-80
2024/01/15 11:16:19;;;;;;;;;;;;;;;-1.02;81.85;99229.09;4948222;28;19933;-81
2024/01/15 11:18:58;;;;;;;;;;;;;;;-0.91;81.18;99226.69;4967435;28;19932;-81
2024/01/15 11:21:26;;;;;;;;;;;;;;;-0.86;80.29;99232.72;4985774;28;19933;-81
2024/01/15 11:23:52;;;;;;;;;;;;;;;-0.83;80.03;99230.19;4983963;28;19934;-80
2024/01/15 11:26:29;;;;;;;;;;;;;;;-0.74;79.58;99224.28;4980989;28;19956;-82
2024/01/15 11:28:56;;;;;;;;;;;;;;;-0.69;79.10;99237.22;4982119;28;19933;-82
2024/01/15 11:31:29;;;;;;;;;;;;;;;-0.65;78.33;99238.97;4962803;28;19934;-82
2024/01/15 11:33:56;;;;;;;;;;;;;;;-0.64;78.26;99230.41;4984883;28;19925;-82
2024/01/15 11:36:42;;;;;;;;;;;;;;;-0.65;78.69;99233.81;4984969;28;19929;-81
2024/01/15 11:39:27;;;;;;;;;;;;;;;-0.60;78.58;99238.19;4981944;28;19932;-80
2024/01/15 11:41:55;;;;;;;;;;;;;;;-0.61;77.98;99233.88;4980972;28;19926;-81
2024/01/15 11:44:21;;;;;;;;;;;;;;;-0.61;78.64;99227.84;4957293;28;19933;-81
2024/01/15 11:46:57;;;;;;;;;;;;;;;-0.59;78.29;99228.75;4962881;28;19930;-81
2024/01/15 11:49:27;;;;;;;;;;;;;;;-0.61;78.51;99230.44;4982460;28;19957;-80
2024/01/15 11:51:54;;;;;;;;;;;;;;;-0.61;79.03;99223.59;4965136;28;20000;-81
2024/01/15 11:54:21;;;;;;;;;;;;;;;-0.58;78.96;99225.31;4970642;28;19925;-80
2024/01/15 11:56:47;;;;;;;;;;;;;;;-0.56;79.23;99223.63;4965907;28;19934;-81
2024/01/15 11:59:14;;;;;;;;;;;;;;;-0.58;79.31;99227.88;4966021;28;19932;-81
2024/01/15 12:01:41;;;;;;;;;;;;;;;-0.60;79.37;99234.75;4957542;28;20019;-80
2024/01/15 12:04:08;;;;;;;;;;;;;;;-0.51;79.65;99242.56;4969111;28;19926;-81
2024/01/15 12:06:35;;;;;;;;;;;;;;;-0.49;78.77;99252.88;4984198;28;19925;-81
2024/01/15 12:09:06;;;;;;;;;;;;;;;-0.41;78.10;99249.53;4967155;28;19926;-81
2024/01/15 12:11:33;;;;;;;;;;;;;;;-0.36;77.27;99241.88;4965212;28;19934;-80
2024/01/15 12:14:00;;;;;;;;;;;;;;;-0.29;77.08;99246.25;4962268;28;19927;-81
2024/01/15 12:16:26;;;;;;;;;;;;;;;-0.26;77.07;99229.91;4949729;28;19926;-81
2024/01/15 12:18:54;;;;;;;;;;;;;;;-0.21;76.10;99238.56;4967867;28;19926;-82
2024/01/15 12:21:21;;;;;;;;;;;;;;;-0.19;76.17;99239.44;4968464;28;19937;-82
2024/01/15 12:23:48;;;;;;;;;;;;;;;-0.11;76.35;99232.63;4970171;28;19930;-82
2024/01/15 12:26:15;;;;;;;;;;;;;;;-0.14;75.77;99232.63;4977761;28;20440;-79
2024/01/15 12:28:44;;;;;;;;;;;;;;;-0.12;75.44;99233.47;4970989;28;19926;-81
2024/01/15 12:31:11;;;;;;;;;;;;;;;-0.07;75.74;99230.97;4983426;28;19926;-81
2024/01/15 12:33:37;;;;;;;;;;;;;;;-0.05;76.21;99227.53;4987164;28;19926;-81
2024/01/15 12:36:04;;;;;;;;;;;;;;;-0.01;75.44;99229.28;4969459;28;19925;-82
2024/01/15 12:38:31;;;;;;;;;;;;;;;0.02;75.69;99238.78;4977244;28;19992;-81
2024/01/15 12:41:00;;;;;;;;;;;;;;;0.11;75.57;99236.25;4949966;28;19933;-82
2024/01/15 12:43:26;;;;;;;;;;;;;;;0.19;75.23;99241.50;4979190;28;19926;-79
2024/01/15 12:45:53;;;;;;;;;;;;;;;0.10;74.52;99257.78;4959249;28;19926;-81
2024/01/15 12:48:20;;;;;;;;;;;;;;;0.17;74.63;99253.50;4959911;28;19973;-82